Pemberton, MN (56078)

1:25 AM CDT on August 27, 2016 (GMT -0500)
Mapleton | | Change Station

Elev 1024 ft 43.92 °N, 93.96 °W | Updated 2 seconds ago

Mostly Cloudy
Mostly Cloudy
62.8 °F
Feels Like 62.8 °F
N
3.5
Wind Variable Wind from ESE
Gusts 3.5 mph

Today
High -- | Low -- °F
--% Chance of Precip.
Yesterday
High -- | Low -- °F
Precip. -- in
Pressure 30.11 in
Visibility 10.0 miles
Clouds Scattered Clouds 7000 ft
Mostly Cloudy 11000 ft
Dew Point 58 °F
Humidity 85%
Rainfall 0.00 in
Snow Depth Not available.
6:33 AM 7:58 PM
Waning Crescent, 27% visible
METAR KACQ 270614Z AUTO 13004KT 10SM SCT070 BKN110 15/13 A3011 RMK AO2 LTG DSNT W
Pressure 30.11 in
Visibility 10.0 miles
Clouds Scattered Clouds 7000 ft
Mostly Cloudy 11000 ft
Dew Point 58 °F
Humidity 85%
Rainfall 0.00 in
Snow Depth Not available.
6:33 AM 7:58 PM
Waning Crescent, 27% visible
METAR KACQ 270614Z AUTO 13004KT 10SM SCT070 BKN110 15/13 A3011 RMK AO2 LTG DSNT W

10-Day Weather Forecast

Almanac

Astronomy

Aug. 27, 2016 Rise Set
Actual Time
Civil Twilight
Nautical Twilight
Astronomical Twilight
Moon
Length of Visible Light
Length of Day
Tomorrow will be .
, % of the Moon is Illuminated

Today's Extremes

State Highs State Lows

Community

WunderPhotos

Upload Photos

1,935,303 photos uploaded!

WunderBlog® & News

Nearby

Air Quality

  Air Quality AQ Index Pollutant
Not available.

Snow Depth

Station Depth Elevation

Earthquake Activity

City Distance Mag. Time & Date
Minimum magnitude displayed is 2.5.

Coastal Water Temperatures

Place Temperature

Stations

Nearby Weather Stations

Station Location Temp. Windchill Dew Point Humidity Wind Precip. Elev Updated Type
                   

Watches & Warnings

There are currently no watches in effect.